createdAt,value
2019-02-11T00:00:02.414Z,788.69
2019-02-11T00:00:06.704Z,788.67
2019-02-11T00:00:10.991Z,788.62
2019-02-11T00:00:15.284Z,788.66
2019-02-11T00:00:19.589Z,788.63
2019-02-11T00:00:23.878Z,788.67
2019-02-11T00:00:28.165Z,788.68
2019-02-11T00:00:32.456Z,788.69
2019-02-11T00:00:36.649Z,788.67
2019-02-11T00:00:40.657Z,788.62
2019-02-11T00:00:44.855Z,788.65
2019-02-11T00:00:49.146Z,788.68
2019-02-11T00:00:53.339Z,788.72
2019-02-11T00:00:57.548Z,788.7
2019-02-11T00:01:01.746Z,788.7
2019-02-11T00:01:06.047Z,788.68
2019-02-11T00:01:10.349Z,788.72
2019-02-11T00:01:14.543Z,788.73
2019-02-11T00:01:18.830Z,788.73
2019-02-11T00:01:23.118Z,788.74
2019-02-11T00:01:27.414Z,788.75
2019-02-11T00:01:31.700Z,788.74
2019-02-11T00:01:35.982Z,788.76
2019-02-11T00:01:40.268Z,788.78
2019-02-11T00:01:44.474Z,788.8
2019-02-11T00:01:48.762Z,788.77
2019-02-11T00:01:53.057Z,788.76
2019-02-11T00:01:57.342Z,788.74
2019-02-11T00:02:01.676Z,788.77
2019-02-11T00:02:05.877Z,788.76
2019-02-11T00:02:10.168Z,788.79
2019-02-11T00:02:14.459Z,788.74
2019-02-11T00:02:18.756Z,788.77
2019-02-11T00:02:23.045Z,788.77
2019-02-11T00:02:27.339Z,788.79
2019-02-11T00:02:31.625Z,788.77
2019-02-11T00:02:35.910Z,788.81
2019-02-11T00:02:40.214Z,788.86
2019-02-11T00:02:44.511Z,788.88
2019-02-11T00:02:48.801Z,788.87
2019-02-11T00:02:53.091Z,788.87
2019-02-11T00:02:57.384Z,788.89
2019-02-11T00:03:01.721Z,788.9
2019-02-11T00:03:06.011Z,788.9
2019-02-11T00:03:10.198Z,788.86
2019-02-11T00:03:14.483Z,788.87
2019-02-11T00:03:18.771Z,788.9
2019-02-11T00:03:22.958Z,788.88
2019-02-11T00:03:27.052Z,788.92
2019-02-11T00:03:31.339Z,788.94
2019-02-11T00:03:35.634Z,788.94
2019-02-11T00:03:39.829Z,788.92
2019-02-11T00:03:44.119Z,788.92
2019-02-11T00:03:48.210Z,788.91
2019-02-11T00:04:01.004Z,788.85
2019-02-11T00:04:05.292Z,788.88
2019-02-11T00:04:09.602Z,788.86
2019-02-11T00:04:13.794Z,788.84
2019-02-11T00:04:18.088Z,788.89
2019-02-11T00:04:22.372Z,788.84
2019-02-11T00:04:26.662Z,788.85
2019-02-11T00:04:30.955Z,788.85
2019-02-11T00:04:35.244Z,788.86
2019-02-11T00:04:39.534Z,788.83
2019-02-11T00:04:43.729Z,788.84
2019-02-11T00:04:48.019Z,788.85
2019-02-11T00:04:52.306Z,788.86
2019-02-11T00:04:56.594Z,788.89
2019-02-11T00:05:00.937Z,788.84
2019-02-11T00:05:05.035Z,788.91
2019-02-11T00:05:09.350Z,788.87
2019-02-11T00:05:13.544Z,788.88
2019-02-11T00:05:17.894Z,788.83
2019-02-11T00:05:22.185Z,788.85
2019-02-11T00:05:26.475Z,788.83
2019-02-11T00:05:30.762Z,788.79
2019-02-11T00:05:34.956Z,788.84
2019-02-11T00:05:39.054Z,788.76
2019-02-11T00:05:43.256Z,788.74
2019-02-11T00:05:47.545Z,788.76
2019-02-11T00:05:51.857Z,788.7
2019-02-11T00:05:56.145Z,788.67
2019-02-11T00:06:00.427Z,788.7
2019-02-11T00:06:04.648Z,788.69
2019-02-11T00:06:08.842Z,788.71
2019-02-11T00:06:13.140Z,788.72
2019-02-11T00:06:17.434Z,788.68
2019-02-11T00:06:21.623Z,788.73
2019-02-11T00:06:25.915Z,788.72
2019-02-11T00:06:30.201Z,788.73
2019-02-11T00:06:34.500Z,788.72
2019-02-11T00:06:38.688Z,788.73
2019-02-11T00:06:42.877Z,788.74
2019-02-11T00:06:47.177Z,788.68
2019-02-11T00:06:51.496Z,788.72
2019-02-11T00:06:55.783Z,788.75
2019-02-11T00:06:59.982Z,788.71
2019-02-11T00:07:04.322Z,788.7
2019-02-11T00:07:08.614Z,788.71
2019-02-11T00:07:12.925Z,788.7
2019-02-11T00:07:17.218Z,788.71
2019-02-11T00:07:21.406Z,788.71
2019-02-11T00:07:25.701Z,788.68
2019-02-11T00:07:29.990Z,788.69
2019-02-11T00:07:34.279Z,788.68
2019-02-11T00:07:38.564Z,788.69
2019-02-11T00:07:42.764Z,788.7
2019-02-11T00:07:47.049Z,788.69
2019-02-11T00:07:51.239Z,788.65
2019-02-11T00:07:55.531Z,788.68
2019-02-11T00:07:59.829Z,788.67
2019-02-11T00:08:04.125Z,788.65
2019-02-11T00:08:08.414Z,788.64
2019-02-11T00:08:12.602Z,788.65
2019-02-11T00:08:16.910Z,788.67
2019-02-11T00:08:21.200Z,788.66
2019-02-11T00:08:25.398Z,788.65
2019-02-11T00:08:29.606Z,788.67
2019-02-11T00:08:33.800Z,788.62
2019-02-11T00:08:38.107Z,788.6
2019-02-11T00:08:42.395Z,788.59
2019-02-11T00:08:46.580Z,788.6
2019-02-11T00:08:50.866Z,788.56
2019-02-11T00:08:55.155Z,788.57
2019-02-11T00:08:59.453Z,788.59
2019-02-11T00:09:03.745Z,788.59
2019-02-11T00:09:07.945Z,788.57
2019-02-11T00:09:12.201Z,788.58
2019-02-11T00:09:16.511Z,788.58
2019-02-11T00:09:20.799Z,788.57
2019-02-11T00:09:25.093Z,788.52
2019-02-11T00:09:29.385Z,788.56
2019-02-11T00:09:33.701Z,788.58
2019-02-11T00:09:37.997Z,788.55
2019-02-11T00:09:42.294Z,788.56
2019-02-11T00:09:46.583Z,788.55
2019-02-11T00:09:50.879Z,788.58
2019-02-11T00:09:55.178Z,788.58
2019-02-11T00:09:59.473Z,788.56
2019-02-11T00:10:03.905Z,788.58
2019-02-11T00:10:08.105Z,788.54
2019-02-11T00:10:12.399Z,788.53
2019-02-11T00:10:16.502Z,788.53
2019-02-11T00:10:20.808Z,788.55
2019-02-11T00:10:25.105Z,788.59
2019-02-11T00:10:29.422Z,788.59
2019-02-11T00:10:33.797Z,788.58
2019-02-11T00:10:38.089Z,788.59
2019-02-11T00:10:42.433Z,788.58
2019-02-11T00:10:46.726Z,788.58
2019-02-11T00:10:51.015Z,788.54
2019-02-11T00:10:55.318Z,788.54
2019-02-11T00:11:01.183Z,788.56
2019-02-11T00:11:05.480Z,788.54
2019-02-11T00:11:09.789Z,788.55
2019-02-11T00:11:13.995Z,788.55
2019-02-11T00:11:18.221Z,788.58
2019-02-11T00:11:22.533Z,788.57
2019-02-11T00:11:26.738Z,788.61
2019-02-11T00:11:31.034Z,788.57
2019-02-11T00:11:35.231Z,788.58
2019-02-11T00:11:39.340Z,788.56
2019-02-11T00:11:43.650Z,788.59
2019-02-11T00:11:47.940Z,788.65
2019-02-11T00:11:52.138Z,788.66
2019-02-11T00:11:56.442Z,788.66
2019-02-11T00:12:00.747Z,788.69
2019-02-11T00:12:05.062Z,788.67
2019-02-11T00:12:09.269Z,788.7
2019-02-11T00:12:13.571Z,788.75
2019-02-11T00:12:17.769Z,788.74
2019-02-11T00:12:22.073Z,788.75
2019-02-11T00:12:26.284Z,788.75
2019-02-11T00:12:30.585Z,788.76
2019-02-11T00:12:34.871Z,788.81
2019-02-11T00:12:39.075Z,788.8
2019-02-11T00:12:43.368Z,788.79
2019-02-11T00:12:47.671Z,788.8
2019-02-11T00:12:51.968Z,788.83
2019-02-11T00:12:56.155Z,788.85
2019-02-11T00:13:00.437Z,788.83
2019-02-11T00:13:13.336Z,788.87
2019-02-11T00:13:17.629Z,788.86
2019-02-11T00:13:21.931Z,788.9
2019-02-11T00:13:26.239Z,788.91
2019-02-11T00:13:30.529Z,788.96
2019-02-11T00:13:34.820Z,788.93
2019-02-11T00:13:39.157Z,788.97
2019-02-11T00:13:43.453Z,788.95
2019-02-11T00:13:47.746Z,788.95
2019-02-11T00:13:52.034Z,788.99
2019-02-11T00:13:56.318Z,788.94
2019-02-11T00:14:00.599Z,788.93
2019-02-11T00:14:04.891Z,788.95
2019-02-11T00:14:09.188Z,789
2019-02-11T00:14:13.483Z,789
2019-02-11T00:14:17.799Z,788.99
2019-02-11T00:14:22.097Z,789.02
2019-02-11T00:14:26.292Z,789.01
2019-02-11T00:14:30.582Z,789.03
2019-02-11T00:14:34.871Z,789.01
2019-02-11T00:14:39.156Z,789.01
2019-02-11T00:14:43.449Z,788.97
2019-02-11T00:14:47.740Z,788.98
2019-02-11T00:14:51.941Z,788.98
2019-02-11T00:14:56.140Z,788.96
2019-02-11T00:15:00.431Z,788.98
2019-02-11T00:15:04.751Z,788.96
2019-02-11T00:15:09.042Z,788.94
2019-02-11T00:15:13.333Z,788.93
2019-02-11T00:15:17.535Z,788.91
2019-02-11T00:15:21.827Z,788.86
2019-02-11T00:15:26.118Z,788.87
2019-02-11T00:15:30.312Z,788.84
2019-02-11T00:15:34.599Z,788.87
2019-02-11T00:15:38.902Z,788.84
2019-02-11T00:15:43.196Z,788.84
2019-02-11T00:15:47.390Z,788.83
2019-02-11T00:15:51.683Z,788.86
2019-02-11T00:15:56.006Z,788.9
2019-02-11T00:16:00.300Z,788.89
2019-02-11T00:16:04.603Z,788.89
2019-02-11T00:16:08.944Z,788.83
2019-02-11T00:16:13.144Z,788.84
2019-02-11T00:16:17.444Z,788.85
2019-02-11T00:16:21.749Z,788.84
2019-02-11T00:16:25.936Z,788.86
2019-02-11T00:16:30.131Z,788.87
2019-02-11T00:16:34.459Z,788.85
2019-02-11T00:16:38.746Z,788.89
2019-02-11T00:16:42.939Z,788.88
2019-02-11T00:16:47.227Z,788.92
2019-02-11T00:16:51.416Z,788.97
2019-02-11T00:16:55.608Z,788.97
2019-02-11T00:16:59.909Z,788.95
2019-02-11T00:17:04.294Z,788.93
2019-02-11T00:17:08.579Z,788.97
2019-02-11T00:17:12.767Z,788.95
2019-02-11T00:17:16.960Z,788.96
2019-02-11T00:17:21.259Z,788.98
2019-02-11T00:17:25.450Z,788.95
2019-02-11T00:17:29.751Z,788.96
2019-02-11T00:17:34.044Z,789.02
2019-02-11T00:17:38.344Z,789.01
2019-02-11T00:17:42.630Z,789.01
2019-02-11T00:17:46.924Z,788.96
2019-02-11T00:17:51.017Z,788.97
2019-02-11T00:17:55.351Z,789
2019-02-11T00:17:59.640Z,789.06
2019-02-11T00:18:03.926Z,789.02
2019-02-11T00:18:08.210Z,789.04
2019-02-11T00:18:12.508Z,789.08
2019-02-11T00:18:16.807Z,789.09
2019-02-11T00:18:21.088Z,789.09
2019-02-11T00:18:25.376Z,789.11
2019-02-11T00:18:29.660Z,789.09
2019-02-11T00:18:33.943Z,789.15
2019-02-11T00:18:38.269Z,789.15
2019-02-11T00:18:42.468Z,789.17
2019-02-11T00:18:46.757Z,789.13
2019-02-11T00:18:51.075Z,789.16
2019-02-11T00:18:55.371Z,789.15
2019-02-11T00:18:59.661Z,789.16
2019-02-11T00:19:04.059Z,789.15
2019-02-11T00:19:09.053Z,789.15
2019-02-11T00:19:14.700Z,789.22
2019-02-11T00:19:18.993Z,789.21
2019-02-11T00:19:23.279Z,789.25
2019-02-11T00:19:27.586Z,789.24
2019-02-11T00:19:31.875Z,789.24
2019-02-11T00:19:36.156Z,789.23
2019-02-11T00:19:40.443Z,789.26
2019-02-11T00:19:44.754Z,789.25
2019-02-11T00:19:49.038Z,789.28
2019-02-11T00:19:53.226Z,789.24
2019-02-11T00:19:57.477Z,789.26
2019-02-11T00:20:01.670Z,789.31
2019-02-11T00:20:05.971Z,789.31
2019-02-11T00:20:10.067Z,789.35
2019-02-11T00:20:14.350Z,789.35
2019-02-11T00:20:18.641Z,789.33
2019-02-11T00:20:22.940Z,789.35
2019-02-11T00:20:27.222Z,789.41
2019-02-11T00:20:31.515Z,789.38
2019-02-11T00:20:35.802Z,789.4
2019-02-11T00:20:40.084Z,789.36
2019-02-11T00:20:44.389Z,789.41
2019-02-11T00:20:48.677Z,789.38
2019-02-11T00:20:52.959Z,789.43
2019-02-11T00:20:57.168Z,789.46
2019-02-11T00:21:01.451Z,789.5
2019-02-11T00:21:05.738Z,789.51
2019-02-11T00:21:10.028Z,789.49
2019-02-11T00:21:14.311Z,789.53
2019-02-11T00:21:18.600Z,789.52
2019-02-11T00:21:22.890Z,789.49
2019-02-11T00:21:27.174Z,789.47
2019-02-11T00:21:31.374Z,789.47
2019-02-11T00:21:35.663Z,789.47
2019-02-11T00:21:39.946Z,789.47
2019-02-11T00:21:44.277Z,789.46
2019-02-11T00:21:48.477Z,789.5
2019-02-11T00:21:52.787Z,789.47
2019-02-11T00:21:56.977Z,789.48
2019-02-11T00:22:01.314Z,789.46
2019-02-11T00:22:05.748Z,789.45
2019-02-11T00:22:09.945Z,789.47
2019-02-11T00:22:14.239Z,789.44
2019-02-11T00:22:18.529Z,789.42
2019-02-11T00:22:22.729Z,789.42
2019-02-11T00:22:27.023Z,789.43
2019-02-11T00:22:31.315Z,789.45
2019-02-11T00:22:35.510Z,789.42
2019-02-11T00:22:39.711Z,789.44
2019-02-11T00:22:43.991Z,789.4
2019-02-11T00:22:48.288Z,789.41
2019-02-11T00:22:52.385Z,789.37
2019-02-11T00:22:56.672Z,789.43
2019-02-11T00:23:00.974Z,789.43
2019-02-11T00:23:05.320Z,789.48
2019-02-11T00:23:09.570Z,789.46
2019-02-11T00:23:13.863Z,789.49
2019-02-11T00:23:18.149Z,789.5
2019-02-11T00:23:22.443Z,789.47
2019-02-11T00:23:26.637Z,789.5
2019-02-11T00:23:30.828Z,789.5
2019-02-11T00:23:35.114Z,789.56
2019-02-11T00:23:39.396Z,789.5
2019-02-11T00:23:43.583Z,789.47
2019-02-11T00:23:47.873Z,789.5
2019-02-11T00:23:52.159Z,789.49
2019-02-11T00:23:56.446Z,789.49
2019-02-11T00:24:00.747Z,789.48
2019-02-11T00:24:04.954Z,789.46
2019-02-11T00:24:09.240Z,789.44
2019-02-11T00:24:15.383Z,789.48
2019-02-11T00:24:19.579Z,789.48
2019-02-11T00:24:23.875Z,789.5
2019-02-11T00:24:28.177Z,789.52
2019-02-11T00:24:32.468Z,789.51
2019-02-11T00:24:36.760Z,789.54
2019-02-11T00:24:41.045Z,789.56
2019-02-11T00:24:45.329Z,789.53
2019-02-11T00:24:49.615Z,789.57
2019-02-11T00:24:53.932Z,789.56
2019-02-11T00:24:58.121Z,789.55
2019-02-11T00:25:02.407Z,789.54
2019-02-11T00:25:06.699Z,789.56
2019-02-11T00:25:10.996Z,789.57
2019-02-11T00:25:15.304Z,789.57
2019-02-11T00:25:19.605Z,789.6
2019-02-11T00:25:23.797Z,789.57
2019-02-11T00:25:28.099Z,789.63
2019-02-11T00:25:32.382Z,789.59
2019-02-11T00:25:36.669Z,789.55
2019-02-11T00:25:40.877Z,789.58
2019-02-11T00:25:45.176Z,789.6
2019-02-11T00:25:49.366Z,789.53
2019-02-11T00:25:53.557Z,789.56
2019-02-11T00:25:57.761Z,789.57
2019-02-11T00:26:02.051Z,789.54
2019-02-11T00:26:06.393Z,789.58
2019-02-11T00:26:10.678Z,789.54
2019-02-11T00:26:14.963Z,789.52
2019-02-11T00:26:19.263Z,789.54
2019-02-11T00:26:23.499Z,789.59
2019-02-11T00:26:27.788Z,789.57
2019-02-11T00:26:32.070Z,789.57
2019-02-11T00:26:36.351Z,789.56
2019-02-11T00:26:40.645Z,789.57
2019-02-11T00:26:44.936Z,789.54
2019-02-11T00:26:49.127Z,789.54
2019-02-11T00:26:53.335Z,789.55
2019-02-11T00:26:57.622Z,789.59
2019-02-11T00:27:01.910Z,789.59
2019-02-11T00:27:06.210Z,789.56
2019-02-11T00:27:10.495Z,789.55
2019-02-11T00:27:14.788Z,789.57
2019-02-11T00:27:19.079Z,789.59
2019-02-11T00:27:23.369Z,789.6
2019-02-11T00:27:27.695Z,789.59
2019-02-11T00:27:31.993Z,789.62
2019-02-11T00:27:36.284Z,789.6
2019-02-11T00:27:40.565Z,789.61
2019-02-11T00:27:44.855Z,789.56
2019-02-11T00:27:49.142Z,789.59
2019-02-11T00:27:53.443Z,789.65
2019-02-11T00:27:57.731Z,789.58
2019-02-11T00:28:02.087Z,789.65
2019-02-11T00:28:06.275Z,789.66
2019-02-11T00:28:10.567Z,789.63
2019-02-11T00:28:14.855Z,789.68
2019-02-11T00:28:19.145Z,789.65
2019-02-11T00:28:23.439Z,789.65
2019-02-11T00:28:27.787Z,789.65
2019-02-11T00:28:31.976Z,789.68
2019-02-11T00:28:36.268Z,789.61
2019-02-11T00:28:40.560Z,789.7
2019-02-11T00:28:44.843Z,789.73
2019-02-11T00:28:49.064Z,789.69
2019-02-11T00:28:53.359Z,789.65
2019-02-11T00:28:57.646Z,789.64
2019-02-11T00:29:01.833Z,789.71
2019-02-11T00:29:06.123Z,789.71
2019-02-11T00:29:10.222Z,789.77
2019-02-11T00:29:14.510Z,789.8
2019-02-11T00:29:18.811Z,789.76
2019-02-11T00:29:23.002Z,789.77
2019-02-11T00:29:27.303Z,789.76
2019-02-11T00:29:31.594Z,789.77
2019-02-11T00:29:35.790Z,789.74
2019-02-11T00:29:40.085Z,789.74
2019-02-11T00:29:44.278Z,789.73
2019-02-11T00:29:48.565Z,789.74
2019-02-11T00:29:52.847Z,789.76
2019-02-11T00:29:57.132Z,789.74
2019-02-11T00:30:01.415Z,789.73
2019-02-11T00:30:05.876Z,789.73
2019-02-11T00:30:10.169Z,789.74
2019-02-11T00:30:14.468Z,789.71
2019-02-11T00:30:18.756Z,789.74
2019-02-11T00:30:23.043Z,789.72
2019-02-11T00:30:27.330Z,789.67
2019-02-11T00:30:31.619Z,789.69
2019-02-11T00:30:37.780Z,789.67
2019-02-11T00:30:42.075Z,789.64
2019-02-11T00:30:46.363Z,789.58
2019-02-11T00:30:50.461Z,789.57
2019-02-11T00:30:54.556Z,789.58
2019-02-11T00:30:58.842Z,789.55
2019-02-11T00:31:03.079Z,789.53
2019-02-11T00:31:07.274Z,789.57
2019-02-11T00:31:11.644Z,789.52
2019-02-11T00:31:16.247Z,789.57
2019-02-11T00:31:21.108Z,789.55
2019-02-11T00:31:25.900Z,789.51
2019-02-11T00:31:30.940Z,789.45
2019-02-11T00:31:35.248Z,789.43
2019-02-11T00:31:39.446Z,789.48
2019-02-11T00:31:43.739Z,789.44
2019-02-11T00:31:48.032Z,789.47
2019-02-11T00:31:52.232Z,789.47
2019-02-11T00:31:56.529Z,789.49
2019-02-11T00:32:00.731Z,789.45
2019-02-11T00:32:04.922Z,789.43
2019-02-11T00:32:09.223Z,789.41
2019-02-11T00:32:13.516Z,789.41
2019-02-11T00:32:17.710Z,789.39
2019-02-11T00:32:21.905Z,789.41
2019-02-11T00:32:26.161Z,789.44
2019-02-11T00:32:30.447Z,789.42
2019-02-11T00:32:34.737Z,789.42
2019-02-11T00:32:39.026Z,789.38
2019-02-11T00:32:43.363Z,789.38
2019-02-11T00:32:47.843Z,789.35
2019-02-11T00:32:52.579Z,789.35
2019-02-11T00:32:57.185Z,789.33
2019-02-11T00:33:02.187Z,789.34
2019-02-11T00:33:06.482Z,789.33
2019-02-11T00:33:10.779Z,789.34
2019-02-11T00:33:14.973Z,789.33
2019-02-11T00:33:19.269Z,789.29
2019-02-11T00:33:23.582Z,789.25
2019-02-11T00:33:27.869Z,789.21
2019-02-11T00:33:32.058Z,789.27
2019-02-11T00:33:36.357Z,789.28
2019-02-11T00:33:40.646Z,789.29
2019-02-11T00:33:44.942Z,789.29
2019-02-11T00:33:49.234Z,789.3
2019-02-11T00:33:53.527Z,789.21
2019-02-11T00:33:57.813Z,789.17
2019-02-11T00:34:02.101Z,789.25
2019-02-11T00:34:06.391Z,789.18
2019-02-11T00:34:10.483Z,789.16
2019-02-11T00:34:14.783Z,789.18
2019-02-11T00:34:18.972Z,789.21
2019-02-11T00:34:23.170Z,789.13
2019-02-11T00:34:27.368Z,789.12
2019-02-11T00:34:31.567Z,789.17
2019-02-11T00:34:35.863Z,789.16
2019-02-11T00:34:40.148Z,789.21
2019-02-11T00:34:44.340Z,789.17
2019-02-11T00:34:48.626Z,789.16
2019-02-11T00:34:52.926Z,789.13
2019-02-11T00:34:57.124Z,789.16
2019-02-11T00:35:01.417Z,789.09
2019-02-11T00:35:05.726Z,789.15
2019-02-11T00:35:09.845Z,789.06
2019-02-11T00:35:14.044Z,789.09
2019-02-11T00:35:18.144Z,789.06
2019-02-11T00:35:22.435Z,789.06
2019-02-11T00:35:26.724Z,789.01
2019-02-11T00:35:31.009Z,789
2019-02-11T00:35:35.208Z,789.01
2019-02-11T00:35:39.491Z,788.98
2019-02-11T00:35:43.784Z,788.98
2019-02-11T00:35:47.985Z,788.92
2019-02-11T00:35:52.185Z,788.94
2019-02-11T00:35:56.491Z,788.92
2019-02-11T00:36:00.800Z,788.89
2019-02-11T00:36:05.000Z,788.92
2019-02-11T00:36:09.283Z,788.93
2019-02-11T00:36:13.622Z,788.87
2019-02-11T00:36:17.911Z,788.9
2019-02-11T00:36:22.069Z,788.92
2019-02-11T00:36:26.354Z,788.96
2019-02-11T00:36:30.652Z,788.95
2019-02-11T00:36:34.938Z,788.95
2019-02-11T00:36:39.229Z,788.9
2019-02-11T00:36:43.516Z,788.92
2019-02-11T00:36:47.705Z,788.89
2019-02-11T00:36:51.992Z,788.84
2019-02-11T00:36:56.277Z,788.85
2019-02-11T00:37:00.572Z,788.85
2019-02-11T00:37:04.767Z,788.89
2019-02-11T00:37:08.975Z,788.87
2019-02-11T00:37:13.270Z,788.9
2019-02-11T00:37:17.566Z,788.86
2019-02-11T00:37:21.857Z,788.9
2019-02-11T00:37:26.160Z,788.83
2019-02-11T00:37:30.446Z,788.86
2019-02-11T00:37:34.728Z,788.83
2019-02-11T00:37:39.013Z,788.85
2019-02-11T00:37:43.200Z,788.8
2019-02-11T00:37:49.189Z,788.85
2019-02-11T00:37:53.481Z,788.86
2019-02-11T00:37:57.780Z,788.86
2019-02-11T00:38:02.076Z,788.86
2019-02-11T00:38:06.415Z,788.83
2019-02-11T00:38:10.715Z,788.88
2019-02-11T00:38:15.011Z,788.86
2019-02-11T00:38:19.303Z,788.84
2019-02-11T00:38:23.599Z,788.89
2019-02-11T00:38:27.734Z,788.85
2019-02-11T00:38:32.025Z,788.86
2019-02-11T00:38:36.376Z,788.85
2019-02-11T00:38:40.664Z,788.89
2019-02-11T00:38:44.870Z,788.85
2019-02-11T00:38:49.218Z,788.84
2019-02-11T00:38:53.416Z,788.88
2019-02-11T00:38:57.713Z,788.89
2019-02-11T00:39:01.899Z,788.86
2019-02-11T00:39:06.240Z,788.83
2019-02-11T00:39:10.529Z,788.82
2019-02-11T00:39:14.733Z,788.86
2019-02-11T00:39:19.027Z,788.8
2019-02-11T00:39:23.230Z,788.83
2019-02-11T00:39:27.533Z,788.78
2019-02-11T00:39:31.820Z,788.8
2019-02-11T00:39:36.117Z,788.79
2019-02-11T00:39:40.402Z,788.82
2019-02-11T00:39:44.691Z,788.81
2019-02-11T00:39:48.984Z,788.79
2019-02-11T00:39:53.273Z,788.79
2019-02-11T00:39:57.473Z,788.8
2019-02-11T00:40:01.927Z,788.83
2019-02-11T00:40:06.217Z,788.79
2019-02-11T00:40:10.424Z,788.82
2019-02-11T00:40:14.523Z,788.78
2019-02-11T00:40:18.808Z,788.79
2019-02-11T00:40:23.008Z,788.77
2019-02-11T00:40:27.295Z,788.77
2019-02-11T00:40:31.606Z,788.8
2019-02-11T00:40:35.897Z,788.8
2019-02-11T00:40:40.182Z,788.83
2019-02-11T00:40:44.379Z,788.85
2019-02-11T00:40:48.582Z,788.81
2019-02-11T00:40:52.680Z,788.78
2019-02-11T00:40:56.969Z,788.81
2019-02-11T00:41:01.261Z,788.84
2019-02-11T00:41:05.451Z,788.82
2019-02-11T00:41:09.743Z,788.86
2019-02-11T00:41:14.040Z,788.85
2019-02-11T00:41:18.329Z,788.86
2019-02-11T00:41:22.614Z,788.84
2019-02-11T00:41:26.900Z,788.83
2019-02-11T00:41:31.191Z,788.79
2019-02-11T00:41:35.395Z,788.82
2019-02-11T00:41:39.687Z,788.78
2019-02-11T00:41:43.971Z,788.76
2019-02-11T00:41:48.312Z,788.84
2019-02-11T00:41:52.609Z,788.82
2019-02-11T00:41:56.900Z,788.83
2019-02-11T00:42:01.193Z,788.78
2019-02-11T00:42:05.395Z,788.76
2019-02-11T00:42:09.681Z,788.76
2019-02-11T00:42:13.971Z,788.74
2019-02-11T00:42:18.259Z,788.71
2019-02-11T00:42:22.546Z,788.74
2019-02-11T00:42:26.878Z,788.73
2019-02-11T00:42:31.163Z,788.76
2019-02-11T00:42:35.458Z,788.69
2019-02-11T00:42:39.743Z,788.7
2019-02-11T00:42:44.033Z,788.76
2019-02-11T00:42:48.345Z,788.7
2019-02-11T00:42:52.635Z,788.7
2019-02-11T00:42:56.942Z,788.71
2019-02-11T00:43:01.246Z,788.69
2019-02-11T00:43:05.656Z,788.68
2019-02-11T00:43:09.843Z,788.7
2019-02-11T00:43:22.518Z,788.73
2019-02-11T00:43:26.805Z,788.72
2019-02-11T00:43:31.090Z,788.69
2019-02-11T00:43:35.375Z,788.69
2019-02-11T00:43:39.679Z,788.69
2019-02-11T00:43:43.771Z,788.64
2019-02-11T00:43:48.053Z,788.7
2019-02-11T00:43:52.293Z,788.67
2019-02-11T00:43:56.591Z,788.7
2019-02-11T00:44:00.879Z,788.67
2019-02-11T00:44:05.168Z,788.7
2019-02-11T00:44:09.453Z,788.71
2019-02-11T00:44:13.738Z,788.68
2019-02-11T00:44:18.036Z,788.66
2019-02-11T00:44:22.322Z,788.66
2019-02-11T00:44:26.604Z,788.63
2019-02-11T00:44:30.894Z,788.65
2019-02-11T00:44:35.189Z,788.6
2019-02-11T00:44:39.470Z,788.65
2019-02-11T00:44:43.756Z,788.59
2019-02-11T00:44:48.050Z,788.58
2019-02-11T00:44:52.336Z,788.59
2019-02-11T00:44:56.624Z,788.56
2019-02-11T00:45:01.125Z,788.6
2019-02-11T00:45:05.423Z,788.58
2019-02-11T00:45:09.712Z,788.61
2019-02-11T00:45:14.004Z,788.55
2019-02-11T00:45:18.296Z,788.56
2019-02-11T00:45:22.600Z,788.55
2019-02-11T00:45:26.789Z,788.56
2019-02-11T00:45:31.073Z,788.52
2019-02-11T00:45:35.367Z,788.49
2019-02-11T00:45:39.665Z,788.51
2019-02-11T00:45:43.976Z,788.57
2019-02-11T00:45:48.256Z,788.53
2019-02-11T00:45:52.548Z,788.57
2019-02-11T00:45:56.837Z,788.53
2019-02-11T00:46:01.129Z,788.54
2019-02-11T00:46:05.425Z,788.56
2019-02-11T00:46:09.714Z,788.58
2019-02-11T00:46:14.015Z,788.56
2019-02-11T00:46:18.210Z,788.62
2019-02-11T00:46:22.493Z,788.6
2019-02-11T00:46:26.780Z,788.63
2019-02-11T00:46:31.067Z,788.62
2019-02-11T00:46:35.263Z,788.59
2019-02-11T00:46:39.559Z,788.61
2019-02-11T00:46:43.746Z,788.63
2019-02-11T00:46:48.049Z,788.62
2019-02-11T00:46:52.248Z,788.62
2019-02-11T00:46:56.540Z,788.64
2019-02-11T00:47:00.731Z,788.65
2019-02-11T00:47:05.030Z,788.62
2019-02-11T00:47:09.377Z,788.63
2019-02-11T00:47:13.673Z,788.64
2019-02-11T00:47:17.873Z,788.59
2019-02-11T00:47:22.169Z,788.57
2019-02-11T00:47:26.456Z,788.6
2019-02-11T00:47:30.739Z,788.54
2019-02-11T00:47:35.027Z,788.58
2019-02-11T00:47:39.312Z,788.53
2019-02-11T00:47:43.605Z,788.52
2019-02-11T00:47:47.906Z,788.57
2019-02-11T00:47:52.193Z,788.52
2019-02-11T00:47:56.475Z,788.47
2019-02-11T00:48:00.759Z,788.49
2019-02-11T00:48:07.035Z,788.5
2019-02-11T00:48:11.401Z,788.51
2019-02-11T00:48:15.592Z,788.48
2019-02-11T00:48:19.778Z,788.47
2019-02-11T00:48:24.079Z,788.42
2019-02-11T00:48:28.364Z,788.45
2019-02-11T00:48:32.658Z,788.45
2019-02-11T00:48:36.949Z,788.4
2019-02-11T00:48:41.236Z,788.39
2019-02-11T00:48:45.433Z,788.36
2019-02-11T00:48:49.724Z,788.37
2019-02-11T00:48:54.029Z,788.33
2019-02-11T00:48:58.336Z,788.35
2019-02-11T00:49:02.682Z,788.38
2019-02-11T00:49:06.922Z,788.36
2019-02-11T00:49:11.218Z,788.39
2019-02-11T00:49:15.417Z,788.38
2019-02-11T00:49:19.709Z,788.36
2019-02-11T00:49:23.994Z,788.37
2019-02-11T00:49:28.287Z,788.41
2019-02-11T00:49:32.573Z,788.37
2019-02-11T00:49:36.769Z,788.33
2019-02-11T00:49:41.061Z,788.38
2019-02-11T00:49:45.255Z,788.4
2019-02-11T00:49:49.449Z,788.38
2019-02-11T00:49:53.763Z,788.38
2019-02-11T00:49:58.059Z,788.37
2019-02-11T00:50:02.505Z,788.37
2019-02-11T00:50:06.796Z,788.29
2019-02-11T00:50:11.092Z,788.35
2019-02-11T00:50:15.452Z,788.33
2019-02-11T00:50:19.743Z,788.34
2019-02-11T00:50:23.837Z,788.34
2019-02-11T00:50:27.936Z,788.35
2019-02-11T00:50:32.223Z,788.33
2019-02-11T00:50:36.507Z,788.33
2019-02-11T00:50:40.794Z,788.39
2019-02-11T00:50:45.088Z,788.38
2019-02-11T00:50:49.389Z,788.35
2019-02-11T00:50:53.495Z,788.37
2019-02-11T00:50:57.789Z,788.33
2019-02-11T00:51:01.984Z,788.33
2019-02-11T00:51:06.275Z,788.35
2019-02-11T00:51:10.569Z,788.31
2019-02-11T00:51:14.853Z,788.39
2019-02-11T00:51:19.040Z,788.33
2019-02-11T00:51:23.325Z,788.34
2019-02-11T00:51:27.610Z,788.33
2019-02-11T00:51:31.897Z,788.33
2019-02-11T00:51:36.206Z,788.37
2019-02-11T00:51:40.495Z,788.37
2019-02-11T00:51:44.792Z,788.36
2019-02-11T00:51:49.079Z,788.37
2019-02-11T00:51:53.378Z,788.38
2019-02-11T00:51:57.667Z,788.35
2019-02-11T00:52:01.865Z,788.43
2019-02-11T00:52:06.302Z,788.38
2019-02-11T00:52:10.595Z,788.42
2019-02-11T00:52:14.922Z,788.4
2019-02-11T00:52:19.211Z,788.38
2019-02-11T00:52:23.500Z,788.35
2019-02-11T00:52:27.840Z,788.36
2019-02-11T00:52:32.139Z,788.35
2019-02-11T00:52:36.330Z,788.36
2019-02-11T00:52:40.521Z,788.35
2019-02-11T00:52:44.811Z,788.34
2019-02-11T00:52:49.108Z,788.33
2019-02-11T00:52:53.307Z,788.29
2019-02-11T00:52:57.597Z,788.33
2019-02-11T00:53:01.905Z,788.35
2019-02-11T00:53:06.204Z,788.32
2019-02-11T00:53:10.405Z,788.31
2019-02-11T00:53:14.699Z,788.32
2019-02-11T00:53:18.984Z,788.31
2019-02-11T00:53:23.273Z,788.33
2019-02-11T00:53:27.577Z,788.32
2019-02-11T00:53:31.777Z,788.31
2019-02-11T00:53:36.062Z,788.31
2019-02-11T00:53:40.344Z,788.28
2019-02-11T00:53:44.632Z,788.26
2019-02-11T00:53:50.735Z,788.24
2019-02-11T00:53:55.031Z,788.25
2019-02-11T00:53:59.245Z,788.24
2019-02-11T00:54:03.445Z,788.21
2019-02-11T00:54:07.644Z,788.18